Mc Girk, Missouri
Current Conditions -  °F | °C
As of 7:53 PM on Friday 28 Nov 2014 (Local Time) from KJEF Reporting Station
Clear Clear  
Wind Chill: 46°   Ceiling: Unl
Heat Index: 49°   Visibility: 10mi
Dew Point: 33°   Wind: 7mph
Humidity: 54%   Direction: 120°ESE
Pressure: 29.86"   Gusts: NA
Location:  38.6111°N, 92.4808°W
Report Text: KJEF 290153Z 12006KT 10SM CLR 09/01 A2986 RMK AO2 SLP104 T00940006 $
Loading
Personal Weather Stations






























Interactive Weather Map New forecast layout! Learn more

10-Day Weather Forecast

Advertisements
Track Severe Weather on mobile